Johnson Creek, Wisconsin
Current Conditions -  °F | °C
As of 2:55 AM on Saturday 22 Nov 2014 (Local Time) from KRYV Reporting Station
Unknown Precip Unknown Precip  
Wind Chill: 21°   Ceiling: 1700
Heat Index: 31°   Visibility: 5mi
Dew Point: 29°   Wind: 14mph
Humidity: 92%   Direction: 200°SSW
Pressure: 30.01"   Gusts: 18mph
Location:  43.08°N, 88.77°W
Report Text: KRYV 220855Z AUTO 20012G16KT 5SM UP BKN017 OVC021 00/M02 A3001 RMK AO2 T10051017
Loading
Personal Weather Stations






























Interactive Weather Map New forecast layout! Learn more

10-Day Weather Forecast

Advertisements
Track Severe Weather on mobile